Time;durP1;ratioP1;P1;durP2;ratioP2;P2;SDS_P1;SDS_P2;PMS_P1;PMS_P2;Temp;Humidity;BMP_temperature;BMP_pressure;BME280_temperature;BME280_humidity;BME280_pressure;Samples;Min_cycle;Max_cycle;Signal;HPM_P1;HPM_P2
2022/05/16 00:00:34;;;;;;;3.60;1.42;;;16.70;82.30;;;;;;5112917;28;20365;-71
2022/05/16 00:03:01;;;;;;;3.45;1.90;;;16.70;83.00;;;;;;5115292;28;20114;-72
2022/05/16 00:05:27;;;;;;;2.17;1.77;;;16.60;83.70;;;;;;5110243;28;20118;-72
2022/05/16 00:07:53;;;;;;;2.63;1.90;;;16.60;84.60;;;;;;5114767;28;20536;-72
2022/05/16 00:10:20;;;;;;;2.85;1.70;;;16.50;85.50;;;;;;5115190;28;20115;-72
2022/05/16 00:12:46;;;;;;;2.95;1.73;;;16.50;85.90;;;;;;5113223;28;20038;-72
2022/05/16 00:15:14;;;;;;;3.83;2.15;;;16.50;86.50;;;;;;5097620;28;20111;-72
2022/05/16 00:17:41;;;;;;;1.95;1.35;;;16.50;87.00;;;;;;5113938;28;20055;-71
2022/05/16 00:20:07;;;;;;;1.65;1.40;;;16.40;87.60;;;;;;5114514;28;20024;-71
2022/05/16 00:22:33;;;;;;;2.83;1.67;;;16.40;88.40;;;;;;5114337;28;20035;-70
2022/05/16 00:24:59;;;;;;;3.83;1.85;;;16.40;89.10;;;;;;5114225;28;20111;-72
2022/05/16 00:27:25;;;;;;;1.88;1.55;;;16.40;89.30;;;;;;5114283;28;20031;-72
2022/05/16 00:29:50;;;;;;;2.88;1.88;;;16.40;90.00;;;;;;5114045;28;20135;-72
2022/05/16 00:32:17;;;;;;;2.05;1.48;;;16.40;90.60;;;;;;5114362;28;20392;-72
2022/05/16 00:34:42;;;;;;;1.88;1.70;;;16.40;90.60;;;;;;5113815;28;20031;-72
2022/05/16 00:37:08;;;;;;;2.83;1.63;;;16.30;91.00;;;;;;5107270;28;20031;-71
2022/05/16 00:39:34;;;;;;;6.00;1.63;;;16.30;91.40;;;;;;5113919;28;20103;-69
2022/05/16 00:42:01;;;;;;;2.95;1.67;;;16.30;91.90;;;;;;5113327;28;20047;-71
2022/05/16 00:44:27;;;;;;;3.63;1.50;;;16.30;92.20;;;;;;5102477;28;20039;-72
2022/05/16 00:46:53;;;;;;;2.33;1.42;;;16.30;92.50;;;;;;5113941;28;20034;-70
2022/05/16 00:49:29;;;;;;;2.55;1.40;;;16.20;92.90;;;;;;5113602;28;20024;-72
2022/05/16 00:52:12;;;;;;;4.53;2.10;;;16.20;93.30;;;;;;5109950;28;20026;-72
2022/05/16 00:54:43;;;;;;;2.45;1.60;;;16.20;93.70;;;;;;5111513;28;20494;-71
2022/05/16 00:57:12;;;;;;;2.25;1.73;;;16.20;93.80;;;;;;5114366;28;20036;-72
2022/05/16 00:59:48;;;;;;;4.68;2.00;;;16.10;93.90;;;;;;5113829;28;20118;-71
2022/05/16 01:05:00;;;;;;;5.60;1.80;;;16.10;93.70;;;;;;5113510;28;20031;-72
2022/05/16 01:07:32;;;;;;;3.47;1.30;;;16.10;93.80;;;;;;5114056;28;20028;-72
2022/05/16 01:09:57;;;;;;;3.75;1.48;;;16.10;94.10;;;;;;5111883;28;20100;-72
2022/05/16 01:12:45;;;;;;;1.58;1.38;;;16.10;94.00;;;;;;5113512;28;20456;-70
2022/05/16 01:15:25;;;;;;;1.83;1.65;;;16.00;94.20;;;;;;5106461;28;20019;-71
2022/05/16 01:17:50;;;;;;;2.72;1.42;;;16.00;94.60;;;;;;5102594;28;20039;-71
2022/05/16 01:20:16;;;;;;;3.35;1.38;;;16.00;94.70;;;;;;5113759;28;20023;-72
2022/05/16 01:22:46;;;;;;;2.25;1.90;;;16.00;95.00;;;;;;5113025;28;20053;-71
2022/05/16 01:25:21;;;;;;;1.48;1.38;;;15.90;95.30;;;;;;5104641;28;20035;-71
2022/05/16 01:27:46;;;;;;;3.08;1.80;;;15.90;95.80;;;;;;5112968;28;20046;-71
2022/05/16 01:30:14;;;;;;;4.65;1.80;;;15.90;96.40;;;;;;5113516;28;20035;-71
2022/05/16 01:32:40;;;;;;;3.95;1.70;;;15.90;96.50;;;;;;5112729;28;20460;-71
2022/05/16 01:35:07;;;;;;;2.22;1.60;;;15.80;96.90;;;;;;5113016;28;20036;-71
2022/05/16 01:40:16;;;;;;;4.18;1.40;;;15.80;97.30;;;;;;5112403;28;20097;-71
2022/05/16 01:42:42;;;;;;;2.45;1.25;;;15.70;97.50;;;;;;5112605;28;20043;-71
2022/05/16 01:45:08;;;;;;;1.75;1.27;;;15.70;97.70;;;;;;5108847;28;20036;-71
2022/05/16 01:47:34;;;;;;;2.53;1.80;;;15.70;97.90;;;;;;5106713;28;20522;-70
2022/05/16 01:50:00;;;;;;;3.10;1.65;;;15.60;98.10;;;;;;5103026;28;20028;-71
2022/05/16 01:52:26;;;;;;;5.45;2.20;;;15.60;98.30;;;;;;5109325;28;20447;-72
2022/05/16 01:54:52;;;;;;;3.03;1.90;;;15.60;98.50;;;;;;5104863;28;20392;-72
2022/05/16 01:57:17;;;;;;;3.90;1.90;;;15.60;98.80;;;;;;5103654;28;20087;-72
2022/05/16 01:59:43;;;;;;;8.68;1.63;;;15.60;98.90;;;;;;5102076;28;20029;-71
2022/05/16 02:02:09;;;;;;;4.38;2.00;;;15.60;98.40;;;;;;5100469;28;20028;-73
2022/05/16 02:04:35;;;;;;;5.30;2.17;;;15.70;97.90;;;;;;5103850;28;20034;-69
2022/05/16 02:07:01;;;;;;;3.13;1.98;;;15.70;96.70;;;;;;5083152;28;20032;-71
2022/05/16 02:09:26;;;;;;;2.85;1.60;;;15.80;95.30;;;;;;5104134;28;20035;-72
2022/05/16 02:11:52;;;;;;;2.92;1.65;;;16.00;94.20;;;;;;5102965;28;20035;-71
2022/05/16 02:14:18;;;;;;;3.38;2.03;;;16.30;93.50;;;;;;5097612;28;20039;-70
2022/05/16 02:16:46;;;;;;;5.53;2.00;;;16.40;93.00;;;;;;5100373;28;20028;-70
2022/05/16 02:19:12;;;;;;;3.25;1.75;;;16.60;92.50;;;;;;5102412;28;20032;-73
2022/05/16 02:24:40;;;;;;;4.63;1.80;;;16.80;91.80;;;;;;5104498;28;20070;-72
2022/05/16 02:27:18;;;;;;;3.13;1.52;;;16.90;91.60;;;;;;5104851;28;20027;-72
2022/05/16 02:29:44;;;;;;;2.85;1.75;;;16.90;91.60;;;;;;5103435;28;20418;-71
2022/05/16 02:32:12;;;;;;;7.97;1.77;;;16.90;91.90;;;;;;5102282;28;20028;-72
2022/05/16 02:34:38;;;;;;;3.25;1.80;;;16.90;92.50;;;;;;5099874;28;20035;-70
2022/05/16 02:37:05;;;;;;;3.00;1.60;;;16.90;92.40;;;;;;5101093;28;20551;-71
2022/05/16 02:39:31;;;;;;;2.70;1.65;;;16.80;92.30;;;;;;5100284;28;20031;-72
2022/05/16 02:41:57;;;;;;;2.97;1.83;;;16.80;92.50;;;;;;5103782;28;20040;-72
2022/05/16 02:44:22;;;;;;;3.17;1.70;;;16.70;92.90;;;;;;5102108;28;20031;-72
2022/05/16 02:46:48;;;;;;;3.83;1.88;;;16.60;93.60;;;;;;5101204;28;20039;-72
2022/05/16 02:49:14;;;;;;;3.40;1.80;;;16.60;93.80;;;;;;5103057;28;20032;-72
2022/05/16 02:51:40;;;;;;;4.40;2.10;;;16.40;94.20;;;;;;5102972;28;20103;-70
2022/05/16 02:54:08;;;;;;;2.97;2.00;;;16.40;94.90;;;;;;5103547;28;20020;-73
2022/05/16 02:56:34;;;;;;;3.83;1.90;;;16.30;95.10;;;;;;5103645;28;20452;-72
2022/05/16 02:59:00;;;;;;;3.25;1.67;;;16.30;95.30;;;;;;5102640;28;20028;-71
2022/05/16 03:01:26;;;;;;;5.65;2.22;;;16.20;95.60;;;;;;5101805;28;20042;-73
2022/05/16 03:03:52;;;;;;;3.75;2.25;;;16.10;96.00;;;;;;5101955;28;20036;-73
2022/05/16 03:06:18;;;;;;;3.53;2.10;;;16.10;96.90;;;;;;5082995;28;20101;-72
2022/05/16 03:08:43;;;;;;;3.40;1.75;;;16.10;96.50;;;;;;5099308;28;20039;-72
2022/05/16 03:11:09;;;;;;;4.60;2.40;;;16.00;96.60;;;;;;5104216;28;20046;-72
2022/05/16 03:13:35;;;;;;;2.70;1.70;;;16.00;97.00;;;;;;5099703;28;20426;-72
2022/05/16 03:16:02;;;;;;;4.78;2.10;;;16.00;97.00;;;;;;5103723;28;20088;-72
2022/05/16 03:18:29;;;;;;;4.85;2.17;;;16.00;97.40;;;;;;5098828;28;20028;-72
2022/05/16 03:20:54;;;;;;;3.88;2.17;;;15.90;97.50;;;;;;5095276;28;20043;-72
2022/05/16 03:23:20;;;;;;;3.65;2.50;;;16.00;98.30;;;;;;5100048;28;20032;-72
2022/05/16 03:25:47;;;;;;;3.75;2.20;;;15.90;99.00;;;;;;5099546;28;20032;-72
2022/05/16 03:28:13;;;;;;;4.47;2.53;;;15.90;99.10;;;;;;5101100;28;20073;-72
2022/05/16 03:30:39;;;;;;;6.18;2.38;;;15.90;98.80;;;;;;5102966;28;20426;-70
2022/05/16 03:33:08;;;;;;;5.40;2.75;;;16.00;98.70;;;;;;5104815;28;20399;-72
2022/05/16 03:35:35;;;;;;;3.45;2.53;;;16.00;98.60;;;;;;5103751;28;20020;-72
2022/05/16 03:38:01;;;;;;;5.78;2.35;;;16.10;98.20;;;;;;5105238;28;20036;-73
2022/05/16 03:43:14;;;;;;;3.45;2.30;;;16.10;98.70;;;;;;5099021;28;20047;-72
2022/05/16 03:45:42;;;;;;;4.30;2.90;;;16.00;98.70;;;;;;5098368;28;20066;-71
2022/05/16 03:48:08;;;;;;;3.58;1.75;;;16.10;98.80;;;;;;5102081;28;20038;-72
2022/05/16 03:50:35;;;;;;;2.67;2.30;;;16.00;98.80;;;;;;5103047;28;20051;-72
2022/05/16 03:53:01;;;;;;;3.33;2.05;;;16.10;98.90;;;;;;5097520;28;20042;-72
2022/05/16 03:55:28;;;;;;;6.38;2.55;;;16.00;99.00;;;;;;5100743;28;20023;-72
2022/05/16 03:57:54;;;;;;;3.22;2.38;;;16.10;99.20;;;;;;5101562;28;20024;-73
2022/05/16 04:00:21;;;;;;;3.63;2.42;;;16.10;99.30;;;;;;5104324;28;20076;-72
2022/05/16 04:02:47;;;;;;;4.13;2.72;;;16.10;99.30;;;;;;5100190;28;20035;-71
2022/05/16 04:05:20;;;;;;;4.78;2.20;;;16.20;99.40;;;;;;5102507;28;20031;-73
2022/05/16 04:07:47;;;;;;;4.07;2.30;;;16.20;99.30;;;;;;5100065;28;20174;-71
2022/05/16 04:10:14;;;;;;;6.25;3.05;;;16.20;99.60;;;;;;5099716;28;20030;-72
2022/05/16 04:12:40;;;;;;;2.67;2.13;;;16.20;99.80;;;;;;5100936;28;20040;-71
2022/05/16 04:15:07;;;;;;;6.43;2.55;;;16.20;99.90;;;;;;5102666;28;20023;-72
2022/05/16 04:17:33;;;;;;;3.78;2.22;;;16.20;99.90;;;;;;5103296;28;20106;-72
2022/05/16 04:19:59;;;;;;;4.93;2.20;;;16.30;99.90;;;;;;5101144;28;20032;-72
2022/05/16 04:22:25;;;;;;;3.30;2.47;;;16.20;99.90;;;;;;5106126;28;20473;-73
2022/05/16 04:24:51;;;;;;;4.32;2.78;;;16.30;99.90;;;;;;5104362;28;20035;-72
2022/05/16 04:27:16;;;;;;;3.45;2.15;;;16.30;99.90;;;;;;5103737;28;20352;-72
2022/05/16 04:29:42;;;;;;;2.83;2.30;;;16.30;99.90;;;;;;5106144;28;20026;-71
2022/05/16 04:32:08;;;;;;;4.10;2.25;;;16.30;99.90;;;;;;5105445;28;20032;-72
2022/05/16 04:34:33;;;;;;;5.28;2.20;;;16.30;99.90;;;;;;5101269;28;20028;-72
2022/05/16 04:36:59;;;;;;;4.25;2.30;;;16.30;99.90;;;;;;5102799;28;20802;-72
2022/05/16 04:39:24;;;;;;;6.20;2.70;;;16.40;99.90;;;;;;5108565;28;20709;-72
2022/05/16 04:44:38;;;;;;;4.43;2.55;;;16.30;99.90;;;;;;5106849;28;20069;-72
2022/05/16 04:47:08;;;;;;;2.47;2.20;;;16.30;99.90;;;;;;5104527;28;20590;-72
2022/05/16 04:49:34;;;;;;;2.55;2.35;;;16.20;99.90;;;;;;5102686;28;20401;-72
2022/05/16 04:52:00;;;;;;;4.80;2.85;;;16.20;99.90;;;;;;5105359;28;20027;-72
2022/05/16 04:54:27;;;;;;;2.40;2.03;;;16.10;99.90;;;;;;5102498;28;20173;-73
2022/05/16 04:56:52;;;;;;;3.30;2.60;;;16.10;99.90;;;;;;5100427;28;20520;-73
2022/05/16 04:59:19;;;;;;;3.97;2.45;;;16.10;99.90;;;;;;5101927;28;20112;-72
2022/05/16 05:01:46;;;;;;;3.58;2.75;;;16.10;99.90;;;;;;5098268;28;20032;-72
2022/05/16 05:04:11;;;;;;;4.40;2.92;;;16.20;99.90;;;;;;5105139;28;20043;-73
2022/05/16 05:06:37;;;;;;;6.63;3.28;;;16.20;99.90;;;;;;5103845;28;20031;-71
2022/05/16 05:09:03;;;;;;;5.35;2.60;;;16.20;99.90;;;;;;5112018;28;20030;-72
2022/05/16 05:16:58;;;;;;;3.53;2.55;;;16.40;99.90;;;;;;5113072;28;20638;-73
2022/05/16 05:19:23;;;;;;;3.42;2.63;;;16.40;99.90;;;;;;5113538;28;20080;-73
2022/05/16 05:21:49;;;;;;;4.72;2.97;;;16.50;99.90;;;;;;5109489;28;20476;-71
2022/05/16 05:24:15;;;;;;;5.38;3.30;;;16.60;99.90;;;;;;5113603;28;20039;-72
2022/05/16 05:26:42;;;;;;;3.70;2.80;;;16.70;99.90;;;;;;5112728;28;20032;-72
2022/05/16 05:29:09;;;;;;;7.22;3.55;;;16.70;99.90;;;;;;5113173;28;20038;-72
2022/05/16 05:31:34;;;;;;;5.13;3.53;;;16.90;99.90;;;;;;5104981;28;20039;-73
2022/05/16 05:34:01;;;;;;;7.40;3.40;;;16.90;99.90;;;;;;5112074;28;20051;-72
2022/05/16 05:36:27;;;;;;;4.68;3.25;;;17.00;99.90;;;;;;5113007;28;20034;-73
2022/05/16 05:38:53;;;;;;;4.85;3.33;;;17.10;99.90;;;;;;5112991;28;20103;-72
2022/05/16 05:41:21;;;;;;;5.07;3.42;;;17.10;99.90;;;;;;5113228;28;20440;-73
2022/05/16 05:43:46;;;;;;;6.32;3.25;;;17.20;99.90;;;;;;5113018;28;20039;-72
2022/05/16 05:46:12;;;;;;;4.63;3.35;;;17.20;99.90;;;;;;5113176;28;20040;-71
2022/05/16 05:48:38;;;;;;;4.38;3.17;;;17.30;99.90;;;;;;5113549;28;20050;-70
2022/05/16 05:51:04;;;;;;;4.40;3.25;;;17.30;99.90;;;;;;5112918;28;20023;-73
2022/05/16 05:53:30;;;;;;;7.05;3.33;;;17.30;99.90;;;;;;5103952;28;20039;-74
2022/05/16 05:55:55;;;;;;;4.85;3.30;;;17.40;99.90;;;;;;5092458;28;20028;-73
2022/05/16 05:58:22;;;;;;;5.00;3.10;;;17.50;99.90;;;;;;5103225;28;20032;-73
2022/05/16 06:00:48;;;;;;;9.45;3.42;;;17.50;99.90;;;;;;5112724;28;20020;-73
2022/05/16 06:03:14;;;;;;;6.28;3.17;;;17.60;99.90;;;;;;5113247;28;20042;-74
2022/05/16 06:05:40;;;;;;;10.68;3.63;;;17.70;99.90;;;;;;5111024;28;20084;-72
2022/05/16 06:08:06;;;;;;;9.35;4.25;;;17.80;99.90;;;;;;5092783;28;20024;-74
2022/05/16 06:10:32;;;;;;;9.23;4.43;;;17.90;99.90;;;;;;5092690;28;20039;-73
2022/05/16 06:12:59;;;;;;;7.68;3.28;;;18.00;99.90;;;;;;5092181;28;20043;-75
2022/05/16 06:15:25;;;;;;;4.28;2.78;;;18.00;99.90;;;;;;5092864;28;20057;-74
2022/05/16 06:17:51;;;;;;;3.72;2.78;;;18.10;99.90;;;;;;5110864;28;20489;-75
2022/05/16 06:20:17;;;;;;;5.32;2.90;;;18.20;99.90;;;;;;5106228;28;20022;-71
2022/05/16 06:22:42;;;;;;;4.75;3.00;;;18.30;99.90;;;;;;5112167;28;20046;-69
2022/05/16 06:25:34;;;;;;;4.95;3.38;;;18.30;99.90;;;;;;5112690;28;20080;-74
2022/05/16 06:28:08;;;;;;;6.55;2.55;;;18.40;99.90;;;;;;5111373;28;20728;-73
2022/05/16 06:30:35;;;;;;;7.00;3.40;;;18.50;99.90;;;;;;5112840;28;20084;-72
2022/05/16 06:33:01;;;;;;;4.38;3.08;;;18.60;99.90;;;;;;5112016;28;20031;-73
2022/05/16 06:35:27;;;;;;;6.60;3.38;;;18.70;99.90;;;;;;5112580;28;20019;-73
2022/05/16 06:37:52;;;;;;;7.13;3.83;;;18.70;99.90;;;;;;5111751;28;20030;-70
2022/05/16 06:40:20;;;;;;;6.05;3.67;;;18.80;99.90;;;;;;5111072;28;20047;-72
2022/05/16 06:42:46;;;;;;;8.38;3.80;;;18.90;99.90;;;;;;5111432;28;20047;-71
2022/05/16 06:45:13;;;;;;;5.78;3.47;;;18.90;99.90;;;;;;5112915;28;20023;-72
2022/05/16 06:47:38;;;;;;;5.75;2.95;;;19.00;99.90;;;;;;5112565;28;20070;-71
2022/05/16 06:50:05;;;;;;;5.40;2.72;;;19.10;99.90;;;;;;5111606;28;20067;-72
2022/05/16 06:52:30;;;;;;;6.35;3.10;;;19.30;99.90;;;;;;5109937;28;20042;-71
2022/05/16 06:54:56;;;;;;;5.07;2.38;;;19.50;99.90;;;;;;5091121;28;20028;-70
2022/05/16 06:57:22;;;;;;;3.60;2.15;;;19.80;99.90;;;;;;5092111;28;20028;-70
2022/05/16 06:59:48;;;;;;;5.70;2.72;;;20.00;99.90;;;;;;5091314;28;20024;-69
2022/05/16 07:02:13;;;;;;;3.83;2.70;;;20.30;99.90;;;;;;5107414;28;20461;-71
2022/05/16 07:04:40;;;;;;;4.07;2.55;;;20.60;99.90;;;;;;5112227;28;20349;-71
2022/05/16 07:07:08;;;;;;;7.45;2.70;;;20.90;99.20;;;;;;5111449;28;20070;-71
2022/05/16 07:09:36;;;;;;;6.95;3.08;;;21.10;98.20;;;;;;5104469;28;20115;-72
2022/05/16 07:12:01;;;;;;;5.05;2.50;;;21.30;97.30;;;;;;5091195;28;20024;-71
2022/05/16 07:14:27;;;;;;;4.20;2.30;;;21.50;96.40;;;;;;5092012;28;20088;-72
2022/05/16 07:16:53;;;;;;;3.05;2.67;;;21.70;95.90;;;;;;5090892;28;20024;-71
2022/05/16 07:19:19;;;;;;;6.57;2.42;;;21.80;95.50;;;;;;5093281;28;20028;-71
2022/05/16 07:21:44;;;;;;;6.60;2.58;;;22.00;95.20;;;;;;5094559;28;20030;-70
2022/05/16 07:24:12;;;;;;;4.57;2.60;;;22.20;94.70;;;;;;5093909;28;20059;-71
2022/05/16 07:29:22;;;;;;;4.10;3.03;;;22.80;93.60;;;;;;5111968;28;20031;-71
2022/05/16 07:31:47;;;;;;;7.57;2.72;;;23.10;93.00;;;;;;5104848;28;20032;-71
2022/05/16 07:34:14;;;;;;;7.53;3.15;;;23.30;92.80;;;;;;5091532;28;20110;-74
2022/05/16 07:36:39;;;;;;;5.15;2.90;;;23.50;92.20;;;;;;5091854;28;20028;-73
2022/05/16 07:39:05;;;;;;;3.72;2.65;;;23.50;91.80;;;;;;5090973;28;20486;-72
2022/05/16 07:41:31;;;;;;;6.78;3.22;;;23.50;92.00;;;;;;5091450;28;20413;-71
2022/05/16 07:43:57;;;;;;;7.53;2.97;;;23.50;91.90;;;;;;5094688;28;20460;-71
2022/05/16 07:46:24;;;;;;;7.63;3.55;;;23.60;92.10;;;;;;5112205;28;20027;-70
2022/05/16 07:48:49;;;;;;;4.93;3.15;;;23.60;92.00;;;;;;5111031;28;20023;-70
2022/05/16 07:51:17;;;;;;;7.82;3.08;;;23.60;92.20;;;;;;5112328;28;20080;-71
2022/05/16 07:53:43;;;;;;;5.97;3.03;;;23.50;92.50;;;;;;5104277;28;20384;-71
2022/05/16 07:56:11;;;;;;;5.22;3.05;;;23.60;92.20;;;;;;5096530;28;20035;-72
2022/05/16 07:58:37;;;;;;;9.27;3.58;;;23.70;92.30;;;;;;5115939;28;20073;-72
2022/05/16 08:01:03;;;;;;;8.40;3.13;;;23.70;92.10;;;;;;5115136;28;20024;-72
2022/05/16 08:03:31;;;;;;;8.07;3.55;;;23.60;92.40;;;;;;5115832;28;20028;-71
2022/05/16 08:05:57;;;;;;;8.43;3.80;;;23.60;92.30;;;;;;5114978;28;20028;-73
2022/05/16 08:11:09;;;;;;;10.45;4.10;;;23.60;94.00;;;;;;5103289;28;20022;-74
2022/05/16 08:13:36;;;;;;;10.77;3.95;;;23.30;95.00;;;;;;5115509;28;20046;-71
2022/05/16 08:16:02;;;;;;;8.48;4.15;;;23.00;95.70;;;;;;5114878;28;20019;-72
2022/05/16 08:18:28;;;;;;;5.47;3.78;;;22.80;97.10;;;;;;5115698;28;20031;-74
2022/05/16 08:20:54;;;;;;;5.68;3.58;;;22.60;98.00;;;;;;5106612;28;20027;-72
2022/05/16 08:23:28;;;;;;;7.70;4.45;;;22.50;99.50;;;;;;5094889;28;20028;-72
2022/05/16 08:25:55;;;;;;;8.50;4.38;;;22.40;99.80;;;;;;5094487;28;20101;-70
2022/05/16 08:28:22;;;;;;;6.35;3.88;;;22.30;99.90;;;;;;5095225;28;20089;-73
2022/05/16 08:30:49;;;;;;;4.28;3.70;;;22.20;98.80;;;;;;5094642;28;20032;-70
2022/05/16 08:33:14;;;;;;;12.68;4.90;;;22.10;99.30;;;;;;5094463;28;20089;-71
2022/05/16 08:35:40;;;;;;;7.82;3.72;;;22.20;99.90;;;;;;5094658;28;20020;-71
2022/05/16 08:40:54;;;;;;;5.97;4.22;;;22.30;99.90;;;;;;5093711;28;20102;-71
2022/05/16 08:44:00;;;;;;;6.22;3.63;;;22.50;99.90;;;;;;5094581;28;20046;-72
2022/05/16 08:46:44;;;;;;;9.10;4.63;;;22.60;99.90;;;;;;5094794;28;20028;-71
2022/05/16 08:49:34;;;;;;;7.68;3.70;;;22.70;99.90;;;;;;5106501;28;20031;-72
2022/05/16 08:52:26;;;;;;;6.22;3.92;;;22.80;99.90;;;;;;5113821;28;20464;-69
2022/05/16 08:55:07;;;;;;;9.50;4.38;;;22.80;99.70;;;;;;5093561;28;20027;-69
2022/05/16 08:57:38;;;;;;;5.82;4.10;;;22.90;99.40;;;;;;5094584;28;20369;-71
2022/05/16 09:00:19;;;;;;;7.78;3.80;;;23.10;98.90;;;;;;5113466;28;20524;-69
2022/05/16 09:02:48;;;;;;;8.45;4.40;;;23.40;98.60;;;;;;5093971;28;20024;-72
2022/05/16 09:05:49;;;;;;;5.90;3.85;;;23.90;96.50;;;;;;5093554;28;20085;-73
2022/05/16 09:08:29;;;;;;;12.55;3.65;;;24.40;95.70;;;;;;5089650;28;20540;-71
2022/05/16 09:11:06;;;;;;;;;;;24.80;93.50;;;;;;5114036;28;20384;-70
2022/05/16 09:14:03;;;;;;;5.78;4.00;;;25.10;92.20;;;;;;5114462;28;19911;-72
2022/05/16 09:16:37;;;;;;;8.20;4.00;;;25.20;91.60;;;;;;5113160;28;20043;-71
2022/05/16 09:19:03;;;;;;;8.68;3.72;;;25.40;90.80;;;;;;5099506;28;20024;-71
2022/05/16 09:21:40;;;;;;;6.82;4.28;;;25.40;90.10;;;;;;5094059;28;20047;-70
2022/05/16 09:24:17;;;;;;;8.77;3.22;;;25.40;89.20;;;;;;5092831;28;20031;-70
2022/05/16 09:27:13;;;;;;;8.50;3.92;;;25.70;87.20;;;;;;5101691;28;20035;-71
2022/05/16 09:29:45;;;;;;;8.77;4.28;;;26.00;85.90;;;;;;5114217;28;20122;-70
2022/05/16 09:32:27;;;;;;;11.90;4.28;;;26.50;82.60;;;;;;5113636;28;20043;-71
2022/05/16 09:34:53;;;;;;;9.15;3.92;;;26.90;78.70;;;;;;5113424;28;20110;-70
2022/05/16 09:37:19;;;;;;;8.50;3.70;;;27.00;77.80;;;;;;5101285;28;20108;-71
2022/05/16 09:39:48;;;;;;;9.13;3.63;;;27.00;76.90;;;;;;5092927;28;20055;-71
2022/05/16 09:42:20;;;;;;;8.43;3.42;;;27.20;75.00;;;;;;5092849;28;20036;-71
2022/05/16 09:45:02;;;;;;;7.20;3.65;;;27.20;75.40;;;;;;5093419;28;20481;-71
2022/05/16 09:47:28;;;;;;;11.15;4.20;;;27.30;74.10;;;;;;5093497;28;20517;-70
2022/05/16 09:50:02;;;;;;;6.55;3.53;;;27.50;72.70;;;;;;5110916;28;20027;-68
2022/05/16 09:52:33;;;;;;;8.35;3.80;;;27.40;70.80;;;;;;5112703;28;20027;-71
2022/05/16 09:55:22;;;;;;;8.75;3.65;;;27.30;71.40;;;;;;5092351;28;20393;-71
2022/05/16 09:57:56;;;;;;;8.50;3.60;;;27.20;70.40;;;;;;5093395;28;20040;-72
2022/05/16 10:00:40;;;;;;;9.85;3.55;;;27.10;71.30;;;;;;5098987;28;20027;-71
2022/05/16 10:03:24;;;;;;;10.00;4.03;;;27.20;71.30;;;;;;5112684;28;20345;-71
2022/05/16 10:05:52;;;;;;;10.10;3.90;;;27.20;70.90;;;;;;5113597;28;20028;-71
2022/05/16 10:08:37;;;;;;;7.30;3.30;;;27.40;69.30;;;;;;5112070;28;20027;-71
2022/05/16 10:11:12;;;;;;;9.82;3.95;;;27.50;70.00;;;;;;5112039;28;20063;-71
2022/05/16 10:13:39;;;;;;;7.40;4.18;;;27.80;70.20;;;;;;5113246;28;20113;-71
2022/05/16 10:16:08;;;;;;;9.00;4.00;;;28.20;69.80;;;;;;5112413;28;20032;-71
2022/05/16 10:18:42;;;;;;;5.72;3.95;;;28.40;67.20;;;;;;5111532;28;20023;-70
2022/05/16 10:21:14;;;;;;;7.60;4.28;;;28.40;66.90;;;;;;5112718;28;20039;-70
2022/05/16 10:23:44;;;;;;;11.07;3.65;;;28.20;67.20;;;;;;5113129;28;20031;-71
2022/05/16 10:26:14;;;;;;;10.75;3.83;;;28.10;68.10;;;;;;5112022;28;20115;-71
2022/05/16 10:28:46;;;;;;;6.70;4.05;;;28.10;67.10;;;;;;5112615;28;20031;-72
2022/05/16 10:34:19;;;;;;;10.77;4.15;;;28.10;66.60;;;;;;5112337;28;20050;-71
2022/05/16 10:36:52;;;;;;;10.63;4.32;;;27.90;66.80;;;;;;5112028;28;20098;-71
2022/05/16 10:39:25;;;;;;;6.97;4.63;;;27.60;67.20;;;;;;5091471;28;20040;-71
2022/05/16 10:42:00;;;;;;;11.18;3.95;;;27.30;69.10;;;;;;5092139;28;20124;-71
2022/05/16 10:44:46;;;;;;;7.65;3.42;;;27.00;68.40;;;;;;5092442;28;20040;-72
2022/05/16 10:47:31;;;;;;;15.00;3.30;;;26.50;69.10;;;;;;5091085;28;20044;-71
2022/05/16 10:50:06;;;;;;;6.30;3.50;;;26.30;70.50;;;;;;5100273;28;20064;-69
2022/05/16 10:52:42;;;;;;;5.78;3.60;;;26.10;70.40;;;;;;5112601;28;20030;-71
2022/05/16 10:55:08;;;;;;;8.70;3.70;;;25.90;71.30;;;;;;5111907;28;20116;-70
2022/05/16 10:57:58;;;;;;;7.28;3.65;;;25.70;71.50;;;;;;5112173;28;20027;-70
2022/05/16 11:00:56;;;;;;;9.63;3.33;;;25.50;72.00;;;;;;5112579;28;20031;-70
2022/05/16 11:03:34;;;;;;;9.55;3.35;;;25.40;71.40;;;;;;5092770;28;20044;-71
2022/05/16 11:06:20;;;;;;;8.95;3.03;;;25.40;71.10;;;;;;5091345;28;20077;-69
2022/05/16 11:09:10;;;;;;;10.00;3.15;;;25.30;71.40;;;;;;5092336;28;20111;-72
2022/05/16 11:11:54;;;;;;;11.13;2.97;;;25.40;71.40;;;;;;5109589;28;20605;-71
2022/05/16 11:14:20;;;;;;;12.07;2.92;;;25.30;71.40;;;;;;5111975;28;20075;-72
2022/05/16 11:16:50;;;;;;;8.32;2.78;;;25.20;72.20;;;;;;5112334;28;20103;-71
2022/05/16 11:19:44;;;;;;;6.47;2.75;;;25.10;72.40;;;;;;5111561;28;20336;-70
2022/05/16 11:22:18;;;;;;;6.63;3.38;;;24.90;73.20;;;;;;5091230;28;20032;-70
2022/05/16 11:25:16;;;;;;;7.30;2.92;;;24.80;73.90;;;;;;5092140;28;20025;-70
2022/05/16 11:28:08;;;;;;;7.82;2.85;;;24.70;74.70;;;;;;5094872;28;20028;-70
2022/05/16 11:30:48;;;;;;;6.32;3.15;;;24.50;75.10;;;;;;5096477;28;20033;-70
2022/05/16 11:33:29;;;;;;;9.68;2.72;;;24.30;75.10;;;;;;5095263;28;20028;-71
2022/05/16 11:36:17;;;;;;;;;;;24.10;75.20;;;;;;5096359;28;20506;-71
2022/05/16 11:38:54;;;;;;;8.52;2.90;;;24.00;75.10;;;;;;5099225;28;20356;-71
2022/05/16 11:41:40;;;;;;;9.43;2.58;;;23.80;75.70;;;;;;5114923;28;20112;-71
2022/05/16 11:44:24;;;;;;;7.78;2.55;;;23.60;76.00;;;;;;5114847;28;20414;-71
2022/05/16 11:47:13;;;;;;;9.68;3.20;;;23.40;76.90;;;;;;5115980;28;20357;-71
2022/05/16 11:50:14;;;;;;;7.00;2.15;;;23.20;77.70;;;;;;5116150;28;20115;-71
2022/05/16 11:52:48;;;;;;;10.98;2.00;;;23.10;77.90;;;;;;5015881;28;20040;-71
2022/05/16 12:00:57;;;;;;;5.25;1.77;;;22.80;77.60;;;;;;5115621;28;20148;-71
2022/05/16 12:03:42;;;;;;;5.18;1.70;;;22.70;76.00;;;;;;5114443;28;20027;-73
2022/05/16 12:06:34;;;;;;;8.98;2.22;;;22.70;75.30;;;;;;5114884;28;20080;-71
2022/05/16 12:09:23;;;;;;;3.88;1.65;;;22.50;75.60;;;;;;5115221;28;20479;-69
2022/05/16 12:12:01;;;;;;;4.17;1.60;;;22.40;75.60;;;;;;5098837;28;20105;-70
2022/05/16 12:14:38;;;;;;;4.72;1.52;;;22.20;76.40;;;;;;5095228;28;20032;-70
2022/05/16 12:17:18;;;;;;;5.07;1.20;;;22.00;78.30;;;;;;5094383;28;20035;-70
2022/05/16 12:19:52;;;;;;;5.78;2.20;;;21.80;80.10;;;;;;5095305;28;20153;-71
2022/05/16 12:22:32;;;;;;;5.38;1.70;;;21.60;83.00;;;;;;5094652;28;20385;-72
2022/05/16 12:25:02;;;;;;;6.20;1.75;;;21.20;88.10;;;;;;5094845;28;20061;-71
2022/05/16 12:27:39;;;;;;;9.95;1.70;;;20.80;91.70;;;;;;5094725;28;20385;-71
2022/05/16 12:30:28;;;;;;;7.07;1.85;;;20.20;97.70;;;;;;5094153;28;20028;-71
2022/05/16 12:32:59;;;;;;;5.55;2.17;;;19.60;99.90;;;;;;5094837;28;20039;-71
2022/05/16 12:35:28;;;;;;;5.70;2.10;;;19.00;99.90;;;;;;5094429;28;20088;-71
2022/05/16 12:37:55;;;;;;;5.32;1.95;;;18.50;99.90;;;;;;5093633;28;20024;-70
2022/05/16 12:40:38;;;;;;;6.90;2.65;;;18.00;99.90;;;;;;5110726;28;20036;-71
2022/05/16 12:43:41;;;;;;;8.52;2.40;;;17.70;99.90;;;;;;5113829;28;20040;-70
2022/05/16 12:46:28;;;;;;;6.35;2.63;;;17.40;99.90;;;;;;5114266;28;20031;-71
2022/05/16 12:49:34;;;;;;;5.75;2.33;;;17.20;99.90;;;;;;5107434;28;20100;-71
2022/05/16 12:52:10;;;;;;;6.18;2.60;;;17.00;99.90;;;;;;5091791;28;20456;-69
2022/05/16 12:54:56;;;;;;;5.95;2.55;;;16.90;99.90;;;;;;5095272;28;20035;-70
2022/05/16 12:57:21;;;;;;;8.88;3.08;;;16.80;99.90;;;;;;5113851;28;20135;-70
2022/05/16 12:59:54;;;;;;;4.22;2.40;;;16.80;99.90;;;;;;5113845;28;20450;-70
2022/05/16 13:02:29;;;;;;;7.78;2.97;;;16.80;99.90;;;;;;5113836;28;20254;-70
2022/05/16 13:05:39;;;;;;;6.90;2.80;;;16.80;99.90;;;;;;5114492;28;20158;-70
2022/05/16 13:08:33;;;;;;;7.00;2.88;;;16.90;99.90;;;;;;5010687;28;20068;-70
2022/05/16 13:11:26;;;;;;;10.25;2.40;;;17.10;99.90;;;;;;5003492;28;20447;-68
2022/05/16 13:14:21;;;;;;;7.18;2.83;;;17.50;99.90;;;;;;5077075;28;20051;-70
2022/05/16 13:17:01;;;;;;;6.28;2.17;;;18.00;99.90;;;;;;5094044;28;20043;-71
2022/05/16 13:19:33;;;;;;;6.63;2.00;;;18.60;99.90;;;;;;5099616;28;20039;-71
2022/05/16 13:22:25;;;;;;;6.18;2.00;;;19.10;99.90;;;;;;5093033;28;20393;-69
2022/05/16 13:24:56;;;;;;;7.80;2.42;;;19.50;99.90;;;;;;5089318;28;20048;-70
2022/05/16 13:30:22;;;;;;;3.90;1.95;;;20.10;99.90;;;;;;5107329;28;20039;-71
2022/05/16 13:32:49;;;;;;;5.43;1.60;;;20.30;99.90;;;;;;5113902;28;20118;-69
2022/05/16 13:35:35;;;;;;;5.45;1.92;;;20.50;99.90;;;;;;5112816;28;20020;-70
2022/05/16 13:38:05;;;;;;;5.28;2.17;;;20.60;99.90;;;;;;5102377;28;20427;-68
2022/05/16 13:40:43;;;;;;;4.75;2.03;;;20.80;99.90;;;;;;5093260;28;20370;-71
2022/05/16 13:43:26;;;;;;;4.75;1.90;;;20.90;99.90;;;;;;5092156;28;20477;-71
2022/05/16 13:46:00;;;;;;;2.97;1.67;;;21.00;99.90;;;;;;5102643;28;20024;-71